createdAt,value
2023-04-29T06:33:05.958Z,14.70
2023-04-29T06:35:34.666Z,14.80
2023-04-29T06:38:03.323Z,14.70
2023-04-29T06:40:32.048Z,14.60
2023-04-29T06:43:00.987Z,14.60
2023-04-29T06:45:29.691Z,14.60
2023-04-29T06:47:58.527Z,14.60
2023-04-29T06:50:27.953Z,14.60
2023-04-29T06:52:56.540Z,14.60
2023-04-29T06:55:28.470Z,14.60
2023-04-29T06:57:57.551Z,14.70
2023-04-29T07:00:26.172Z,14.70
2023-04-29T07:02:55.792Z,14.80
2023-04-29T07:05:25.236Z,14.90
2023-04-29T07:07:53.807Z,14.90
2023-04-29T07:10:22.471Z,14.90
2023-04-29T07:12:51.071Z,15.00
2023-04-29T07:15:19.649Z,14.90
2023-04-29T07:17:48.234Z,14.90
2023-04-29T07:20:17.325Z,14.90
2023-04-29T07:22:45.914Z,14.80
2023-04-29T07:25:14.756Z,14.70
2023-04-29T07:27:43.367Z,14.70
2023-04-29T07:30:12.476Z,14.60
2023-04-29T07:32:41.136Z,14.50
2023-04-29T07:35:10.015Z,14.50
2023-04-29T07:37:38.728Z,14.50
2023-04-29T07:40:08.230Z,14.50
2023-04-29T07:42:36.999Z,14.50
2023-04-29T07:45:06.035Z,14.50
2023-04-29T07:47:34.773Z,14.50
2023-04-29T07:50:05.252Z,14.50
2023-04-29T07:52:34.581Z,14.60
2023-04-29T07:55:03.408Z,14.60
2023-04-29T07:57:31.978Z,14.60
2023-04-29T08:00:00.674Z,14.60
2023-04-29T08:02:29.384Z,14.70
2023-04-29T08:04:58.298Z,14.80
2023-04-29T08:07:27.437Z,14.90
2023-04-29T08:09:56.030Z,14.90
2023-04-29T08:12:24.630Z,15.00
2023-04-29T08:14:53.465Z,15.00
2023-04-29T08:17:22.381Z,15.10
2023-04-29T08:19:51.007Z,15.10
2023-04-29T08:22:20.053Z,15.20
2023-04-29T08:24:49.276Z,15.30
2023-04-29T08:27:17.943Z,15.40
2023-04-29T08:29:46.533Z,15.50
2023-04-29T08:32:15.130Z,15.60
2023-04-29T08:34:44.484Z,15.90
2023-04-29T08:37:13.192Z,16.00
2023-04-29T08:39:43.472Z,16.10
2023-04-29T08:42:12.214Z,16.20
2023-04-29T08:44:41.994Z,16.20
2023-04-29T08:47:10.862Z,16.10
2023-04-29T08:49:39.693Z,16.10
2023-04-29T08:52:08.371Z,16.00
2023-04-29T08:54:37.018Z,16.00
2023-04-29T08:57:07.207Z,15.90
2023-04-29T08:59:36.938Z,15.90
2023-04-29T09:02:08.600Z,15.80
2023-04-29T09:04:52.246Z,15.80
2023-04-29T09:07:21.246Z,15.70
2023-04-29T09:09:50.556Z,15.70
2023-04-29T09:12:19.381Z,15.60
2023-04-29T09:14:47.993Z,15.50
2023-04-29T09:17:16.702Z,15.50
2023-04-29T09:19:45.756Z,15.40
2023-04-29T09:22:14.359Z,15.40
2023-04-29T09:24:43.854Z,15.30
2023-04-29T09:27:15.489Z,15.30
2023-04-29T09:29:47.141Z,15.20
2023-04-29T09:32:21.911Z,15.20
2023-04-29T09:34:51.267Z,15.10
2023-04-29T09:37:26.059Z,15.00
2023-04-29T09:39:55.480Z,14.90
2023-04-29T09:42:24.376Z,14.90
2023-04-29T09:44:53.133Z,14.90
2023-04-29T09:47:24.935Z,14.90
2023-04-29T09:49:53.499Z,14.90
2023-04-29T09:52:22.138Z,14.90
2023-04-29T09:54:50.907Z,14.90
2023-04-29T09:57:19.537Z,14.90
2023-04-29T09:59:48.124Z,14.90
2023-04-29T10:02:18.704Z,14.90
2023-04-29T10:04:49.849Z,14.90
2023-04-29T10:07:20.038Z,14.90
2023-04-29T10:09:49.444Z,15.00
2023-04-29T10:12:20.189Z,15.00
2023-04-29T10:14:57.789Z,14.90
2023-04-29T10:17:29.714Z,14.90
2023-04-29T10:20:01.704Z,14.90
2023-04-29T10:22:36.305Z,15.00
2023-04-29T10:25:07.621Z,14.90
2023-04-29T10:27:37.934Z,14.90
2023-04-29T10:30:09.656Z,15.00
2023-04-29T10:32:50.306Z,15.10
2023-04-29T10:35:14.639Z,15.10
2023-04-29T10:37:45.450Z,15.10
2023-04-29T10:40:18.412Z,15.20
2023-04-29T10:42:52.198Z,15.20
2023-04-29T10:45:23.214Z,15.20
2023-04-29T10:48:08.346Z,15.20
2023-04-29T10:50:42.823Z,15.20
2023-04-29T10:53:11.758Z,15.20
2023-04-29T10:55:40.757Z,15.30
2023-04-29T10:58:46.830Z,15.20
2023-04-29T11:01:17.657Z,15.30
2023-04-29T11:04:00.384Z,15.30
2023-04-29T11:06:41.343Z,15.20
2023-04-29T11:09:13.638Z,15.30
2023-04-29T11:12:10.821Z,15.30
2023-04-29T11:14:44.116Z,15.40
2023-04-29T11:17:16.617Z,15.50
2023-04-29T11:19:53.625Z,15.70
2023-04-29T11:22:27.676Z,15.90
2023-04-29T11:25:01.997Z,16.10
2023-04-29T11:27:36.673Z,16.30
2023-04-29T11:30:06.907Z,16.60
2023-04-29T11:32:37.946Z,16.70
2023-04-29T11:35:17.246Z,16.90
2023-04-29T11:37:47.638Z,16.90
2023-04-29T11:40:17.438Z,16.90
2023-04-29T11:42:48.001Z,17.00
2023-04-29T11:45:18.684Z,17.10
2023-04-29T11:47:48.987Z,17.20
2023-04-29T11:50:19.445Z,17.30
2023-04-29T11:52:49.061Z,17.30
2023-04-29T11:55:19.106Z,17.30
2023-04-29T11:57:52.212Z,17.50
2023-04-29T12:00:21.046Z,17.60
2023-04-29T12:02:50.060Z,17.80
2023-04-29T12:05:19.620Z,18.00
2023-04-29T12:07:51.036Z,18.20
2023-04-29T12:10:21.267Z,18.50
2023-04-29T12:12:49.993Z,18.70
2023-04-29T12:15:18.831Z,19.00
2023-04-29T12:17:47.762Z,19.20
2023-04-29T12:20:16.630Z,19.40
2023-04-29T12:22:45.302Z,19.70
2023-04-29T12:25:14.517Z,19.90
2023-04-29T12:27:43.285Z,19.90
2023-04-29T12:30:12.647Z,20.00
2023-04-29T12:32:42.162Z,20.10
2023-04-29T12:35:18.156Z,20.20
2023-04-29T12:37:51.341Z,20.50
2023-04-29T12:40:20.961Z,20.70
2023-04-29T12:42:49.659Z,20.80
2023-04-29T12:45:30.059Z,21.00
2023-04-29T12:47:59.618Z,21.10
2023-04-29T12:50:38.867Z,21.40
2023-04-29T12:53:08.853Z,21.50
2023-04-29T12:55:39.069Z,21.50
2023-04-29T12:58:09.356Z,21.60
2023-04-29T13:00:38.111Z,21.70
2023-04-29T13:03:07.441Z,21.70
2023-04-29T13:05:36.311Z,21.80
2023-04-29T13:08:08.288Z,21.80
2023-04-29T13:10:37.225Z,21.70
2023-04-29T13:13:05.873Z,21.60
2023-04-29T13:15:34.495Z,21.50
2023-04-29T13:18:03.812Z,21.50
2023-04-29T13:20:40.445Z,21.50
2023-04-29T13:23:04.199Z,21.40
2023-04-29T13:25:32.842Z,21.40
2023-04-29T13:28:01.446Z,21.40
2023-04-29T13:30:30.058Z,21.40
2023-04-29T13:33:04.339Z,21.00
2023-04-29T13:35:29.166Z,20.80
2023-04-29T13:37:57.796Z,20.80
2023-04-29T13:40:28.099Z,20.70
2023-04-29T13:43:05.611Z,20.70
2023-04-29T13:45:29.158Z,20.60
2023-04-29T13:48:09.437Z,20.40
2023-04-29T13:51:04.792Z,20.00
2023-04-29T13:53:24.930Z,19.80
2023-04-29T13:56:16.419Z,19.60
2023-04-29T14:05:29.300Z,19.20
2023-04-29T14:07:58.104Z,19.20
2023-04-29T14:10:26.706Z,19.20
2023-04-29T14:12:55.864Z,19.20
2023-04-29T14:15:24.525Z,19.20
2023-04-29T14:17:54.513Z,19.20
2023-04-29T14:20:23.157Z,19.20
2023-04-29T14:22:51.996Z,19.20
2023-04-29T14:25:20.926Z,19.20
2023-04-29T14:27:49.616Z,19.10
2023-04-29T14:30:18.359Z,19.10
2023-04-29T14:32:47.384Z,19.00
2023-04-29T14:35:16.147Z,18.90
2023-04-29T14:37:44.986Z,18.90
2023-04-29T14:40:13.812Z,18.80
2023-04-29T14:42:42.458Z,18.70
2023-04-29T14:45:12.186Z,18.60
2023-04-29T14:47:40.834Z,18.50
2023-04-29T14:50:10.456Z,18.50
2023-04-29T14:52:39.181Z,18.40
2023-04-29T14:55:08.929Z,18.30
2023-04-29T14:57:37.631Z,18.20
2023-04-29T15:00:08.322Z,18.10
2023-04-29T15:02:36.918Z,18.00
2023-04-29T15:05:05.653Z,18.00
2023-04-29T15:07:34.510Z,18.00
2023-04-29T15:10:03.836Z,18.00
2023-04-29T15:12:32.441Z,18.00
2023-04-29T15:15:01.066Z,18.00
2023-04-29T15:17:29.697Z,18.10
2023-04-29T15:19:58.276Z,18.20
2023-04-29T15:22:26.863Z,18.20
2023-04-29T15:24:55.466Z,18.30
2023-04-29T15:27:24.070Z,18.40
2023-04-29T15:29:54.452Z,18.50
2023-04-29T15:32:24.699Z,18.60
2023-04-29T15:34:53.649Z,18.70
2023-04-29T15:37:23.172Z,18.80
2023-04-29T15:39:52.780Z,18.90
2023-04-29T15:42:21.604Z,18.90
2023-04-29T15:44:50.188Z,18.90
2023-04-29T15:47:18.928Z,18.80
2023-04-29T15:49:47.594Z,18.80
2023-04-29T15:52:16.221Z,18.80
2023-04-29T15:54:44.852Z,18.80
2023-04-29T15:57:13.460Z,18.80
2023-04-29T15:59:42.045Z,18.90
2023-04-29T16:02:11.620Z,19.00
2023-04-29T16:04:40.269Z,19.10
2023-04-29T16:07:08.986Z,19.10
2023-04-29T16:09:37.591Z,19.10
2023-04-29T16:12:06.365Z,19.10
2023-04-29T16:14:34.981Z,19.20
2023-04-29T16:17:04.351Z,19.20
2023-04-29T16:19:35.978Z,19.20
2023-04-29T16:22:03.253Z,19.20
2023-04-29T16:24:31.926Z,19.10
2023-04-29T16:27:01.450Z,19.10
2023-04-29T16:29:30.148Z,19.20
2023-04-29T16:31:58.763Z,19.20
2023-04-29T16:34:27.394Z,19.20
2023-04-29T16:36:55.977Z,19.20
2023-04-29T16:39:24.630Z,19.20
2023-04-29T16:41:53.242Z,19.20
2023-04-29T16:44:21.823Z,19.20
2023-04-29T16:46:51.468Z,19.20
2023-04-29T16:49:23.155Z,19.10
2023-04-29T16:51:51.814Z,19.00
2023-04-29T16:54:20.471Z,19.00
2023-04-29T16:56:50.868Z,19.00
2023-04-29T16:59:19.355Z,18.80
2023-04-29T17:01:48.076Z,18.70
2023-04-29T17:04:16.792Z,18.60
2023-04-29T17:06:45.656Z,18.50
2023-04-29T17:09:15.703Z,18.40
2023-04-29T17:11:44.278Z,18.40
2023-04-29T17:14:12.872Z,18.40
2023-04-29T17:16:41.842Z,18.40
2023-04-29T17:19:10.695Z,18.40
2023-04-29T17:21:39.284Z,18.40
2023-04-29T17:24:07.870Z,18.40
2023-04-29T17:26:36.465Z,18.30
2023-04-29T17:29:05.170Z,18.30
2023-04-29T17:31:35.455Z,18.20
2023-04-29T17:34:08.564Z,18.10
2023-04-29T17:36:37.345Z,18.00
2023-04-29T17:39:07.744Z,17.90
2023-04-29T17:41:36.360Z,17.80
2023-04-29T17:44:05.029Z,17.80
2023-04-29T17:46:33.997Z,17.70
2023-04-29T17:49:02.808Z,17.70
2023-04-29T17:51:34.726Z,17.60
2023-04-29T17:54:05.216Z,17.60
2023-04-29T17:56:34.924Z,17.60
2023-04-29T17:59:06.010Z,17.50
2023-04-29T18:01:35.149Z,17.40
2023-04-29T18:04:03.837Z,17.40
2023-04-29T18:06:32.575Z,17.30
2023-04-29T18:09:01.187Z,17.30
2023-04-29T18:11:29.792Z,17.20
2023-04-29T18:13:58.666Z,17.10
2023-04-29T18:16:27.418Z,17.10
2023-04-29T18:18:57.129Z,17.00
2023-04-29T18:21:27.530Z,17.00
2023-04-29T18:23:57.072Z,16.90
2023-04-29T18:26:25.943Z,16.90
2023-04-29T18:28:54.587Z,16.80
2023-04-29T18:31:25.119Z,16.80
2023-04-29T18:33:53.820Z,16.70
2023-04-29T18:36:23.520Z,16.70
2023-04-29T18:38:52.404Z,16.70
2023-04-29T18:41:20.987Z,16.70
2023-04-29T18:43:49.590Z,16.60
2023-04-29T18:46:18.274Z,16.60
2023-04-29T18:48:47.389Z,16.50
2023-04-29T18:51:15.994Z,16.50
2023-04-29T18:53:44.626Z,16.50
2023-04-29T18:56:13.365Z,16.50
2023-04-29T18:58:41.968Z,16.50
2023-04-29T19:01:10.604Z,16.40
2023-04-29T19:03:40.244Z,16.50
2023-04-29T19:06:08.893Z,16.40
2023-04-29T19:08:37.478Z,16.40
2023-04-29T19:11:06.202Z,16.40
2023-04-29T19:13:34.805Z,16.40
2023-04-29T19:16:03.463Z,16.40
2023-04-29T19:18:32.095Z,16.30
2023-04-29T19:21:01.634Z,16.30
2023-04-29T19:23:30.240Z,16.30
2023-04-29T19:25:58.856Z,16.30
2023-04-29T19:28:27.422Z,16.20
2023-04-29T19:30:56.007Z,16.20
2023-04-29T19:33:24.613Z,16.20
2023-04-29T19:35:53.195Z,16.20
2023-04-29T19:38:21.880Z,16.20
2023-04-29T19:40:50.560Z,16.20
2023-04-29T19:43:19.154Z,16.10
2023-04-29T19:45:47.746Z,16.10
2023-04-29T19:48:16.375Z,16.10
2023-04-29T19:50:45.032Z,16.10
2023-04-29T19:53:13.782Z,16.10
2023-04-29T19:55:42.521Z,16.10
2023-04-29T19:58:11.269Z,16.00
2023-04-29T20:00:40.003Z,16.00
2023-04-29T20:03:08.678Z,16.00
2023-04-29T20:05:37.226Z,16.00
2023-04-29T20:08:07.166Z,16.00
2023-04-29T20:10:35.884Z,15.90
2023-04-29T20:13:04.489Z,15.90
2023-04-29T20:15:33.125Z,15.80
2023-04-29T20:18:02.125Z,15.70
2023-04-29T20:20:30.884Z,15.60
2023-04-29T20:23:00.413Z,15.50
2023-04-29T20:25:29.199Z,15.50
2023-04-29T20:27:57.966Z,15.40
2023-04-29T20:30:26.685Z,15.20
2023-04-29T20:32:55.885Z,15.20
2023-04-29T20:35:25.380Z,15.10
2023-04-29T20:37:54.476Z,15.00
2023-04-29T20:40:23.234Z,14.90
2023-04-29T20:42:51.830Z,14.80
2023-04-29T20:45:20.431Z,14.70
2023-04-29T20:47:49.455Z,14.60
2023-04-29T20:50:18.032Z,14.50
2023-04-29T20:52:48.687Z,14.40
2023-04-29T20:55:17.934Z,14.30
2023-04-29T20:57:46.528Z,14.30
2023-04-29T21:00:15.362Z,14.10
2023-04-29T21:02:44.029Z,14.10
2023-04-29T21:05:12.653Z,14.00
2023-04-29T21:07:41.253Z,13.90
2023-04-29T21:10:10.447Z,13.90
2023-04-29T21:12:39.116Z,13.80
2023-04-29T21:15:08.354Z,13.70
2023-04-29T21:17:37.458Z,13.60
2023-04-29T21:20:07.688Z,13.60
2023-04-29T21:22:36.462Z,13.50
2023-04-29T21:25:05.372Z,13.40
2023-04-29T21:27:35.612Z,13.40
2023-04-29T21:30:05.125Z,13.30
2023-04-29T21:32:33.974Z,13.20
2023-04-29T21:35:03.240Z,13.20
2023-04-29T21:37:33.815Z,13.10
2023-04-29T21:40:04.486Z,13.10
2023-04-29T21:42:34.575Z,13.00
2023-04-29T21:45:03.214Z,13.00
2023-04-29T21:47:32.268Z,12.90
2023-04-29T21:50:01.126Z,12.90
2023-04-29T21:52:32.694Z,12.80
2023-04-29T21:55:01.747Z,12.80
2023-04-29T21:57:42.554Z,12.80
2023-04-29T22:00:00.865Z,12.80
2023-04-29T22:02:31.153Z,12.70
2023-04-29T22:04:59.891Z,12.70
2023-04-29T22:07:28.462Z,12.70
2023-04-29T22:09:57.067Z,12.60
2023-04-29T22:12:25.675Z,12.60
2023-04-29T22:14:54.266Z,12.60
2023-04-29T22:17:22.877Z,12.60
2023-04-29T22:19:51.741Z,12.60
2023-04-29T22:22:20.443Z,12.50
2023-04-29T22:24:49.049Z,12.50
2023-04-29T22:27:17.698Z,12.50
2023-04-29T22:29:46.308Z,12.50
2023-04-29T22:32:15.021Z,12.60
2023-04-29T22:34:43.666Z,12.60
2023-04-29T22:37:12.250Z,12.60
2023-04-29T22:39:40.830Z,12.60
2023-04-29T22:42:09.529Z,12.60
2023-04-29T22:44:38.098Z,12.60
2023-04-29T22:47:06.716Z,12.60
2023-04-29T22:49:35.294Z,12.60
2023-04-29T22:52:03.946Z,12.60
2023-04-29T22:54:32.732Z,12.60
2023-04-29T22:57:01.337Z,12.50
2023-04-29T22:59:29.933Z,12.50
2023-04-29T23:01:58.659Z,12.50
2023-04-29T23:04:27.501Z,12.50
2023-04-29T23:06:56.051Z,12.50
2023-04-29T23:09:24.716Z,12.50
2023-04-29T23:11:53.317Z,12.50
2023-04-29T23:14:22.579Z,12.40
2023-04-29T23:16:51.225Z,12.40
2023-04-29T23:19:19.894Z,12.40
2023-04-29T23:21:48.516Z,12.30
2023-04-29T23:24:17.114Z,12.30
2023-04-29T23:26:45.772Z,12.30
2023-04-29T23:29:14.342Z,12.20
2023-04-29T23:31:43.989Z,12.20
2023-04-29T23:34:13.155Z,12.20
2023-04-29T23:36:41.749Z,12.10
2023-04-29T23:39:10.326Z,12.10
2023-04-29T23:41:38.939Z,12.00
2023-04-29T23:44:07.596Z,12.00
2023-04-29T23:46:36.274Z,12.00
2023-04-29T23:49:04.900Z,11.90
2023-04-29T23:51:34.068Z,11.90
2023-04-29T23:54:02.636Z,11.90
2023-04-29T23:56:32.931Z,11.90
2023-04-29T23:59:01.466Z,11.90
